Time;durP1;ratioP1;P1;durP2;ratioP2;P2;SDS_P1;SDS_P2;PMS_P1;PMS_P2;Temp;Humidity;BMP_temperature;BMP_pressure;BME280_temperature;BME280_humidity;BME280_pressure;Samples;Min_cycle;Max_cycle;Signal;HPM_P1;HPM_P2
2021/03/13 00:00:52;;;;;;;9.77;2.50;;;;;;;6.15;75.46;100103.69;5093868;28;19914;-40
2021/03/13 00:03:18;;;;;;;8.07;2.10;;;;;;;6.15;75.72;100106.34;5094079;28;20039;-41
2021/03/13 00:05:45;;;;;;;12.13;2.80;;;;;;;6.14;75.64;100096.63;5094077;28;20028;-41
2021/03/13 00:08:11;;;;;;;11.50;2.20;;;;;;;6.15;75.29;100089.44;5093613;28;20035;-41
2021/03/13 00:10:39;;;;;;;10.20;2.20;;;;;;;6.14;75.85;100082.41;5094230;28;20052;-41
2021/03/13 00:13:06;;;;;;;10.00;2.20;;;;;;;6.16;75.70;100080.34;5094384;28;20028;-41
2021/03/13 00:15:32;;;;;;;11.45;2.55;;;;;;;6.15;75.93;100068.78;5093642;28;20532;-41
2021/03/13 00:17:59;;;;;;;13.27;2.47;;;;;;;6.18;75.92;100065.63;5093858;28;20081;-41
2021/03/13 00:20:27;;;;;;;10.95;2.22;;;;;;;6.21;75.80;100063.56;5094448;28;20028;-41
2021/03/13 00:22:53;;;;;;;8.80;2.40;;;;;;;6.24;75.85;100069.28;5093734;28;20067;-41
2021/03/13 00:25:20;;;;;;;10.75;2.53;;;;;;;6.27;75.94;100059.97;5093873;28;20074;-41
2021/03/13 00:27:46;;;;;;;8.88;2.40;;;;;;;6.31;75.88;100059.31;5093897;28;20024;-41
2021/03/13 00:30:24;;;;;;;8.52;2.38;;;;;;;6.28;75.91;100046.31;5093351;28;20035;-41
2021/03/13 00:33:00;;;;;;;10.73;2.33;;;;;;;6.29;75.66;100037.22;5093645;28;20028;-41
2021/03/13 00:35:27;;;;;;;;;;;;;;;6.33;75.56;100027.69;5094314;28;20161;-41
2021/03/13 00:37:53;;;;;;;7.47;2.17;;;;;;;6.35;75.85;100025.63;5093318;28;20393;-41
2021/03/13 00:40:21;;;;;;;12.27;3.10;;;;;;;6.33;76.41;100014.25;5093628;28;20039;-41
2021/03/13 00:42:47;;;;;;;12.43;2.65;;;;;;;6.35;76.29;100012.19;5093476;28;20034;-41
2021/03/13 00:45:15;;;;;;;7.15;2.10;;;;;;;6.36;76.79;100008.44;5093597;28;20032;-41
2021/03/13 00:47:41;;;;;;;11.65;2.75;;;;;;;6.36;76.78;100005.78;5093459;28;20422;-41
2021/03/13 00:50:08;;;;;;;9.15;2.60;;;;;;;6.34;77.40;100002.47;5093569;28;20078;-41
2021/03/13 00:52:33;;;;;;;10.48;2.20;;;;;;;6.35;78.08;100000.63;5093180;28;20028;-41
2021/03/13 00:54:58;;;;;;;9.50;2.87;;;;;;;6.30;78.45;99998.63;5093406;28;20111;-41
2021/03/13 00:57:24;;;;;;;10.73;3.10;;;;;;;6.26;78.94;99978.63;5093746;28;20309;-41
2021/03/13 00:59:49;;;;;;;9.70;2.53;;;;;;;6.23;79.71;99972.88;5094027;28;20037;-41
2021/03/13 01:02:15;;;;;;;8.40;2.50;;;;;;;6.20;79.78;99982.22;5093858;28;20024;-41
2021/03/13 01:04:40;;;;;;;12.57;2.47;;;;;;;6.15;80.54;99974.81;5093659;28;20452;-41
2021/03/13 01:07:05;;;;;;;7.23;2.50;;;;;;;6.13;80.37;99968.84;5094095;28;20353;-41
2021/03/13 01:09:31;;;;;;;10.03;3.03;;;;;;;6.07;81.02;99953.63;5093123;28;20050;-42
2021/03/13 01:11:56;;;;;;;9.27;2.30;;;;;;;6.10;80.94;99963.09;5093629;28;20043;-41
2021/03/13 01:14:22;;;;;;;8.10;2.57;;;;;;;6.09;81.47;99953.41;5093987;28;20045;-41
2021/03/13 01:16:48;;;;;;;8.00;2.10;;;;;;;6.05;81.90;99954.88;5093225;28;20482;-41
2021/03/13 01:19:14;;;;;;;8.27;2.40;;;;;;;6.04;81.67;99942.50;5093572;28;20035;-41
2021/03/13 01:21:39;;;;;;;9.15;2.55;;;;;;;6.02;82.85;99931.19;5093205;28;20622;-41
2021/03/13 01:24:05;;;;;;;10.80;3.77;;;;;;;5.98;83.41;99920.06;5092872;28;20135;-41
2021/03/13 01:26:30;;;;;;;6.78;2.17;;;;;;;5.99;83.53;99915.53;5093012;28;20032;-41
2021/03/13 01:28:56;;;;;;;9.60;3.07;;;;;;;5.89;83.66;99906.09;5093200;28;20028;-41
2021/03/13 01:31:21;;;;;;;8.23;2.33;;;;;;;5.89;84.40;99892.69;5093671;28;20071;-41
2021/03/13 01:33:46;;;;;;;9.77;2.37;;;;;;;5.91;84.02;99898.69;5093684;28;20107;-41
2021/03/13 01:36:11;;;;;;;9.17;2.50;;;;;;;5.87;84.40;99886.72;5093933;28;20028;-41
2021/03/13 01:38:37;;;;;;;7.57;2.30;;;;;;;5.86;84.92;99876.22;5096424;28;20487;-41
2021/03/13 01:41:03;;;;;;;7.30;2.50;;;;;;;5.80;85.92;99875.22;5097641;28;20051;-41
2021/03/13 01:43:28;;;;;;;6.70;1.92;;;;;;;5.79;85.62;99872.78;5096977;28;20039;-41
2021/03/13 01:45:54;;;;;;;7.90;2.83;;;;;;;5.78;85.41;99869.28;5097044;28;20475;-41
2021/03/13 01:48:26;;;;;;;8.83;2.83;;;;;;;5.74;86.42;99849.31;5096615;28;20780;-41
2021/03/13 01:50:51;;;;;;;7.70;2.53;;;;;;;5.75;86.21;99859.00;5096852;28;20052;-41
2021/03/13 01:53:17;;;;;;;7.53;2.60;;;;;;;5.75;86.48;99850.13;5096507;28;20066;-40
2021/03/13 01:55:42;;;;;;;10.00;2.70;;;;;;;5.73;86.53;99836.94;5096197;28;20078;-41
2021/03/13 01:58:07;;;;;;;9.10;3.03;;;;;;;5.71;86.94;99836.34;5097033;28;20093;-41
2021/03/13 02:00:32;;;;;;;10.53;2.80;;;;;;;5.69;86.93;99816.97;5096236;28;20024;-41
2021/03/13 02:02:58;;;;;;;9.23;2.77;;;;;;;5.70;87.39;99807.88;5097143;28;20028;-41
2021/03/13 02:05:28;;;;;;;5.80;2.27;;;;;;;5.68;87.63;99796.56;5096403;28;20531;-41
2021/03/13 02:08:09;;;;;;;7.32;2.47;;;;;;;5.65;87.77;99791.63;5096820;28;20035;-41
2021/03/13 02:11:08;;;;;;;8.88;2.67;;;;;;;5.66;86.85;99782.53;5095892;28;20048;-41
2021/03/13 02:13:46;;;;;;;6.20;2.45;;;;;;;5.61;87.45;99772.50;5096403;28;20028;-41
2021/03/13 02:16:44;;;;;;;7.47;2.35;;;;;;;5.66;87.22;99759.25;5096618;28;20111;-42
2021/03/13 02:19:21;;;;;;;10.20;3.28;;;;;;;5.65;87.57;99754.91;5096681;28;20072;-41
2021/03/13 02:21:56;;;;;;;6.18;2.30;;;;;;;5.60;87.70;99746.72;5096307;28;20069;-41
2021/03/13 02:24:36;;;;;;;5.50;2.22;;;;;;;5.63;87.68;99740.91;5096523;28;20024;-41
2021/03/13 02:27:10;;;;;;;8.35;2.50;;;;;;;5.60;88.36;99732.47;5096437;28;20428;-41
2021/03/13 02:29:44;;;;;;;10.90;3.38;;;;;;;5.60;88.04;99724.44;5096667;28;20016;-41
2021/03/13 02:32:21;;;;;;;10.18;2.72;;;;;;;5.61;87.98;99723.38;5096040;28;20036;-41
2021/03/13 02:34:47;;;;;;;;;;;;;;;5.64;88.23;99717.59;5096722;28;20388;-41
2021/03/13 02:37:23;;;;;;;10.27;2.72;;;;;;;5.60;88.67;99705.66;5095671;28;19966;-41
2021/03/13 02:39:52;;;;;;;8.00;2.92;;;;;;;5.60;88.79;99703.00;5096443;28;20085;-41
2021/03/13 02:42:19;;;;;;;10.93;3.33;;;;;;;5.55;89.24;99694.81;5095536;28;20491;-41
2021/03/13 02:44:47;;;;;;;7.78;2.72;;;;;;;5.58;89.23;99676.41;5095657;28;20039;-41
2021/03/13 02:47:13;;;;;;;8.05;2.70;;;;;;;5.58;88.49;99646.09;5095543;28;20032;-41
2021/03/13 02:49:43;;;;;;;11.57;3.97;;;;;;;5.58;89.32;99635.34;5094583;28;20035;-41
2021/03/13 02:52:10;;;;;;;7.18;2.80;;;;;;;5.58;89.07;99638.03;5095743;28;20115;-41
2021/03/13 02:54:37;;;;;;;10.75;3.60;;;;;;;5.59;88.93;99631.63;5095828;28;20073;-41
2021/03/13 02:57:05;;;;;;;9.20;3.80;;;;;;;5.64;88.67;99623.72;5095247;28;20110;-41
2021/03/13 02:59:30;;;;;;;9.18;3.00;;;;;;;5.64;89.00;99607.63;5096012;28;20481;-41
2021/03/13 03:01:58;;;;;;;9.03;3.27;;;;;;;5.65;88.61;99604.69;5095217;28;20077;-41
2021/03/13 03:04:24;;;;;;;9.50;2.95;;;;;;;5.66;88.66;99597.47;5095731;28;20116;-41
2021/03/13 03:06:52;;;;;;;7.55;2.60;;;;;;;5.66;88.73;99582.22;5095071;28;20388;-41
2021/03/13 03:09:20;;;;;;;7.40;2.83;;;;;;;5.67;89.24;99572.31;5095360;28;20028;-41
2021/03/13 03:11:45;;;;;;;8.95;2.35;;;;;;;5.67;89.04;99566.94;5095311;28;20059;-41
2021/03/13 03:14:14;;;;;;;9.13;2.50;;;;;;;5.65;89.14;99555.63;5094912;28;20103;-41
2021/03/13 03:16:42;;;;;;;8.57;2.55;;;;;;;5.67;89.14;99558.91;5095200;28;20031;-41
2021/03/13 03:19:09;;;;;;;7.15;2.28;;;;;;;5.64;89.57;99530.66;5094904;28;20499;-41
2021/03/13 03:21:35;;;;;;;7.43;2.55;;;;;;;5.61;89.78;99535.66;5094438;28;20502;-41
2021/03/13 03:24:01;;;;;;;;;;;;;;;5.67;89.18;99514.13;5095185;28;20032;-41
2021/03/13 03:26:27;;;;;;;8.93;3.28;;;;;;;5.67;89.04;99510.63;5094672;28;20366;-41
2021/03/13 03:28:52;;;;;;;11.47;3.47;;;;;;;5.64;89.74;99503.03;5095349;28;20469;-41
2021/03/13 03:31:17;;;;;;;7.00;2.30;;;;;;;5.69;89.24;99503.16;5093400;28;20318;-41
2021/03/13 03:33:43;;;;;;;10.90;3.00;;;;;;;5.68;89.48;99496.16;5094905;28;20024;-41
2021/03/13 03:36:10;;;;;;;8.43;2.63;;;;;;;5.70;89.75;99486.00;5094867;28;20126;-41
2021/03/13 03:38:35;;;;;;;7.65;2.65;;;;;;;5.71;89.65;99484.97;5094512;28;20032;-41
2021/03/13 03:41:01;;;;;;;8.43;2.77;;;;;;;5.73;89.14;99474.81;5095162;28;20072;-41
2021/03/13 03:43:32;;;;;;;5.30;2.47;;;;;;;5.73;89.67;99465.97;5094728;28;20456;-41
2021/03/13 03:46:00;;;;;;;7.35;2.70;;;;;;;5.77;89.75;99451.03;5095015;28;20258;-41
2021/03/13 03:48:25;;;;;;;9.82;3.05;;;;;;;5.77;89.40;99440.31;5094392;28;20028;-41
2021/03/13 03:50:51;;;;;;;10.65;2.83;;;;;;;5.80;89.59;99451.38;5094403;28;20028;-41
2021/03/13 03:53:20;;;;;;;8.73;3.00;;;;;;;5.81;89.33;99425.38;5094224;28;20027;-40
2021/03/13 03:55:48;;;;;;;8.43;2.38;;;;;;;5.82;89.74;99414.41;5094534;28;20035;-41
2021/03/13 03:58:18;;;;;;;8.13;3.30;;;;;;;5.82;89.37;99411.72;5094158;28;20028;-40
2021/03/13 04:00:44;;;;;;;9.15;2.65;;;;;;;5.83;89.73;99399.94;5094319;28;20028;-40
2021/03/13 04:03:12;;;;;;;8.02;2.35;;;;;;;5.86;89.53;99410.22;5093779;28;20047;-40
2021/03/13 04:05:42;;;;;;;8.40;2.53;;;;;;;5.87;89.85;99397.59;5094041;28;20156;-40
2021/03/13 04:08:10;;;;;;;10.80;3.35;;;;;;;5.89;89.20;99395.50;5094056;28;20019;-40
2021/03/13 04:10:37;;;;;;;10.05;2.80;;;;;;;5.88;89.74;99378.59;5094223;28;20044;-40
2021/03/13 04:13:03;;;;;;;13.45;3.03;;;;;;;5.89;90.03;99371.34;5094243;28;20024;-40
2021/03/13 04:15:29;;;;;;;;;;;;;;;5.90;89.96;99365.75;5094002;28;20058;-40
2021/03/13 04:17:55;;;;;;;7.38;2.35;;;;;;;5.92;89.75;99366.38;5093851;28;19958;-40
2021/03/13 04:20:20;;;;;;;7.60;2.50;;;;;;;5.94;89.70;99348.16;5094486;28;20397;-40
2021/03/13 04:22:48;;;;;;;7.68;2.35;;;;;;;5.97;90.11;99349.56;5094404;28;20035;-40
2021/03/13 04:25:15;;;;;;;12.00;3.80;;;;;;;6.00;89.50;99329.47;5094658;28;20027;-40
2021/03/13 04:27:46;;;;;;;10.93;2.65;;;;;;;6.02;88.97;99320.13;5093711;28;20039;-40
2021/03/13 04:30:15;;;;;;;6.75;2.85;;;;;;;6.02;89.05;99327.38;5093738;28;20472;-40
2021/03/13 04:32:42;;;;;;;7.80;2.35;;;;;;;6.03;89.82;99327.13;5093386;28;20020;-40
2021/03/13 04:35:09;;;;;;;6.38;2.03;;;;;;;6.07;89.00;99319.44;5094188;28;20024;-40
2021/03/13 04:37:35;;;;;;;8.77;2.70;;;;;;;6.11;89.12;99299.13;5093339;28;20396;-40
2021/03/13 04:40:00;;;;;;;8.30;2.30;;;;;;;6.10;89.52;99284.03;5093435;28;20024;-40
2021/03/13 04:42:26;;;;;;;6.63;2.22;;;;;;;6.12;89.28;99279.28;5093640;28;20089;-41
2021/03/13 04:44:51;;;;;;;6.53;2.23;;;;;;;6.14;89.33;99269.09;5092861;28;20039;-40
2021/03/13 04:47:17;;;;;;;9.35;2.50;;;;;;;6.16;89.17;99269.69;5094068;28;20028;-40
2021/03/13 04:49:42;;;;;;;7.63;2.17;;;;;;;6.18;88.99;99248.78;5093331;28;20028;-41
2021/03/13 04:52:09;;;;;;;8.17;2.30;;;;;;;6.18;89.25;99246.91;5093539;28;20039;-40
2021/03/13 04:54:34;;;;;;;;;;;;;;;6.22;88.79;99251.81;5093913;28;20281;-40
2021/03/13 04:56:59;;;;;;;5.30;2.10;;;;;;;6.24;88.40;99236.25;5093204;28;19912;-41
2021/03/13 04:59:25;;;;;;;6.90;2.47;;;;;;;6.22;89.04;99228.44;5093567;28;20051;-40
2021/03/13 05:01:50;;;;;;;5.17;1.77;;;;;;;6.20;88.97;99209.09;5093439;28;20058;-40
2021/03/13 05:04:15;;;;;;;4.80;1.60;;;;;;;6.23;88.83;99213.97;5093477;28;20028;-40
2021/03/13 05:06:41;;;;;;;5.90;1.40;;;;;;;6.27;88.40;99233.09;5093352;28;20026;-40
2021/03/13 05:09:06;;;;;;;4.90;1.97;;;;;;;6.28;88.11;99211.38;5093603;28;20043;-40
2021/03/13 05:11:33;;;;;;;5.00;1.70;;;;;;;6.30;88.37;99198.53;5093921;28;20044;-40
2021/03/13 05:14:00;;;;;;;7.80;1.52;;;;;;;6.30;88.51;99225.38;5097583;28;20028;-40
2021/03/13 05:16:25;;;;;;;4.07;1.55;;;;;;;6.28;88.48;99210.56;5098044;28;20032;-40
2021/03/13 05:18:51;;;;;;;5.93;1.63;;;;;;;6.32;88.79;99217.06;5097571;28;20032;-40
2021/03/13 05:21:17;;;;;;;6.03;1.40;;;;;;;6.32;88.52;99212.53;5097780;28;20430;-40
2021/03/13 05:23:43;;;;;;;6.68;1.88;;;;;;;6.31;89.47;99194.78;5097744;28;20048;-40
2021/03/13 05:26:09;;;;;;;4.22;1.73;;;;;;;6.32;88.99;99191.03;5097616;28;20020;-40
2021/03/13 05:28:34;;;;;;;6.60;2.33;;;;;;;6.32;89.33;99200.97;5097579;28;20027;-40
2021/03/13 05:31:00;;;;;;;7.53;2.07;;;;;;;6.30;89.64;99193.16;5097061;28;20426;-40
2021/03/13 05:33:25;;;;;;;6.47;1.77;;;;;;;6.32;89.85;99192.91;5097165;28;20604;-40
2021/03/13 05:35:50;;;;;;;5.40;1.67;;;;;;;6.32;89.79;99196.41;5097808;28;20467;-40
2021/03/13 05:38:16;;;;;;;5.17;1.70;;;;;;;6.33;89.85;99186.47;5096911;28;20028;-40
2021/03/13 05:40:41;;;;;;;6.37;1.47;;;;;;;6.37;89.60;99183.06;5096675;28;20024;-41
2021/03/13 05:43:07;;;;;;;3.87;1.50;;;;;;;6.34;90.25;99174.69;5097116;28;20032;-40
2021/03/13 05:45:33;;;;;;;5.18;1.65;;;;;;;6.35;89.40;99171.78;5095461;28;20036;-40
2021/03/13 05:48:01;;;;;;;9.27;2.10;;;;;;;6.36;90.44;99175.28;5097003;28;20028;-40
2021/03/13 05:50:27;;;;;;;7.20;1.67;;;;;;;6.34;90.56;99186.22;5097540;28;20114;-40
2021/03/13 05:52:55;;;;;;;7.53;2.15;;;;;;;6.36;90.19;99177.97;5096301;28;20059;-40
2021/03/13 05:55:20;;;;;;;9.43;1.80;;;;;;;6.34;90.32;99172.00;5096463;28;20487;-40
2021/03/13 05:57:46;;;;;;;5.88;1.90;;;;;;;6.36;90.63;99170.72;5097272;28;20028;-40
2021/03/13 06:00:12;;;;;;;7.03;2.03;;;;;;;6.38;91.19;99173.13;5096203;28;20040;-40
2021/03/13 06:02:37;;;;;;;9.05;2.10;;;;;;;6.35;90.75;99177.16;5096222;28;20388;-40
2021/03/13 06:05:04;;;;;;;6.33;2.07;;;;;;;6.39;90.96;99185.50;5096980;28;20028;-41
2021/03/13 06:07:31;;;;;;;6.05;2.08;;;;;;;6.37;91.08;99198.38;5096453;28;20736;-41
2021/03/13 06:09:57;;;;;;;5.55;1.67;;;;;;;6.39;91.12;99202.44;5096408;28;20109;-41
2021/03/13 06:12:24;;;;;;;5.75;1.60;;;;;;;6.43;91.12;99227.72;5097030;28;20435;-41
2021/03/13 06:14:52;;;;;;;7.55;1.95;;;;;;;6.41;90.71;99237.09;5096690;28;20102;-40
2021/03/13 06:17:18;;;;;;;4.50;1.60;;;;;;;6.30;90.28;99187.81;5096083;28;20258;-40
2021/03/13 06:19:58;;;;;;;2.55;0.80;;;;;;;6.18;87.52;99182.50;5096116;28;20464;-41
2021/03/13 06:22:43;;;;;;;4.28;1.00;;;;;;;6.16;87.83;99181.13;5096048;28;20073;-40
2021/03/13 06:25:25;;;;;;;3.20;1.05;;;;;;;6.16;87.54;99175.75;5096157;28;20024;-41
2021/03/13 06:27:59;;;;;;;4.22;1.20;;;;;;;6.17;87.83;99169.31;5096015;28;20035;-40
2021/03/13 06:30:28;;;;;;;5.07;1.50;;;;;;;6.18;87.53;99173.63;5095666;28;20464;-41
2021/03/13 06:32:53;;;;;;;3.45;0.95;;;;;;;6.20;87.19;99166.16;5095840;28;20082;-41
2021/03/13 06:35:31;;;;;;;3.20;0.97;;;;;;;6.21;86.54;99167.78;5096395;28;20056;-41
2021/03/13 06:37:59;;;;;;;2.92;1.10;;;;;;;6.21;86.30;99194.63;5096127;28;20032;-42
2021/03/13 06:40:28;;;;;;;6.38;1.65;;;;;;;6.21;87.41;99180.38;5096327;28;20028;-41
2021/03/13 06:42:54;;;;;;;3.42;1.00;;;;;;;6.19;86.34;99184.09;5095625;28;20468;-42
2021/03/13 06:45:22;;;;;;;2.65;0.82;;;;;;;6.22;85.05;99193.56;5096139;28;20028;-41
2021/03/13 06:47:47;;;;;;;4.90;1.10;;;;;;;6.23;84.73;99194.38;5095533;28;20027;-41
2021/03/13 06:50:21;;;;;;;8.20;2.03;;;;;;;6.23;84.36;99194.38;5094526;28;20483;-41
2021/03/13 06:53:07;;;;;;;3.75;1.10;;;;;;;6.28;82.92;99200.63;5095201;28;20477;-40
2021/03/13 06:55:33;;;;;;;4.18;1.10;;;;;;;6.25;83.07;99203.00;5096195;28;20032;-41
2021/03/13 06:58:11;;;;;;;5.95;1.00;;;;;;;6.23;82.37;99218.53;5095075;28;20533;-41
2021/03/13 07:00:38;;;;;;;3.72;0.90;;;;;;;6.23;80.38;99218.53;5095342;28;20088;-41
2021/03/13 07:03:11;;;;;;;4.50;0.90;;;;;;;6.24;80.67;99214.78;5095223;28;20398;-42
2021/03/13 07:05:39;;;;;;;5.47;0.90;;;;;;;6.21;78.34;99221.47;5095205;28;20035;-41
2021/03/13 07:08:30;;;;;;;8.10;1.75;;;;;;;6.21;77.88;99220.66;5094926;28;20036;-41
2021/03/13 07:11:10;;;;;;;5.20;1.23;;;;;;;6.17;77.62;99221.13;5095612;28;20078;-42
2021/03/13 07:13:48;;;;;;;5.05;1.20;;;;;;;6.15;76.85;99227.81;5095305;28;20028;-42
2021/03/13 07:16:37;;;;;;;7.70;1.38;;;;;;;6.15;76.35;99222.44;5095267;28;20032;-40
2021/03/13 07:19:08;;;;;;;5.13;1.50;;;;;;;6.12;76.00;99223.72;5094615;28;20120;-41
2021/03/13 07:21:35;;;;;;;6.88;1.55;;;;;;;6.13;75.70;99233.41;5094910;28;20024;-41
2021/03/13 07:24:02;;;;;;;8.93;1.75;;;;;;;6.11;75.32;99240.88;5094677;28;20115;-41
2021/03/13 07:26:46;;;;;;;10.70;2.38;;;;;;;6.09;75.41;99229.56;5094413;28;20032;-41
2021/03/13 07:29:15;;;;;;;5.60;1.90;;;;;;;6.13;74.92;99248.69;5093546;28;20060;-41
2021/03/13 07:31:43;;;;;;;8.30;1.70;;;;;;;6.16;74.82;99245.53;5094303;28;20488;-41
2021/03/13 07:34:12;;;;;;;8.00;1.75;;;;;;;6.19;74.77;99240.47;5094479;28;20114;-41
2021/03/13 07:36:41;;;;;;;9.25;1.90;;;;;;;6.25;74.98;99251.31;5094326;28;20448;-41
2021/03/13 07:39:18;;;;;;;6.68;1.73;;;;;;;6.29;74.30;99253.25;5094592;28;20024;-41
2021/03/13 07:41:52;;;;;;;;;;;;;;;6.39;74.60;99256.16;5095243;28;20384;-41
2021/03/13 07:44:18;;;;;;;7.85;1.92;;;;;;;6.42;74.03;99252.97;5094276;28;20297;-42
2021/03/13 07:46:44;;;;;;;9.20;2.58;;;;;;;6.49;74.45;99249.31;5094753;28;20028;-41
2021/03/13 07:49:10;;;;;;;6.28;1.90;;;;;;;6.47;74.11;99254.13;5094039;28;20547;-41
2021/03/13 07:51:36;;;;;;;;;;;;;;;6.51;74.34;99252.56;5094822;28;20028;-41
2021/03/13 07:54:02;;;;;;;8.25;1.92;;;;;;;6.44;74.17;99258.09;5094418;28;20383;-41
2021/03/13 07:56:30;;;;;;;9.27;1.67;;;;;;;6.44;74.31;99264.28;5094248;28;20061;-41
2021/03/13 07:58:55;;;;;;;12.00;2.10;;;;;;;6.44;73.47;99269.66;5094129;28;20032;-41
2021/03/13 08:01:50;;;;;;;8.00;1.97;;;;;;;6.53;73.73;99263.88;5094214;28;20123;-41
2021/03/13 08:04:37;;;;;;;11.60;2.38;;;;;;;6.51;73.01;99253.38;5094400;28;20131;-41
2021/03/13 08:07:02;;;;;;;13.45;2.72;;;;;;;6.45;73.09;99255.19;5093842;28;20031;-41
2021/03/13 08:09:28;;;;;;;7.37;2.13;;;;;;;6.43;73.39;99249.22;5093640;28;20024;-41
2021/03/13 08:11:54;;;;;;;9.93;2.17;;;;;;;6.41;73.76;99261.28;5094045;28;20379;-41
2021/03/13 08:14:33;;;;;;;;;;;;;;;6.43;73.09;99262.63;5094396;28;20379;-41
2021/03/13 08:17:10;;;;;;;10.75;2.33;;;;;;;6.40;73.74;99273.88;5094087;28;19958;-41
2021/03/13 08:19:42;;;;;;;15.10;2.63;;;;;;;6.44;73.74;99277.72;5093950;28;20032;-42
2021/03/13 08:22:18;;;;;;;14.35;2.50;;;;;;;6.50;73.27;99272.44;5093618;28;20050;-42
2021/03/13 08:24:54;;;;;;;12.55;2.95;;;;;;;6.52;73.64;99281.06;5094092;28;20031;-42
2021/03/13 08:27:34;;;;;;;9.50;2.45;;;;;;;6.58;74.16;99277.38;5093466;28;20032;-41
2021/03/13 08:30:00;;;;;;;13.63;2.88;;;;;;;6.66;73.30;99266.25;5094027;28;20031;-42
2021/03/13 08:32:57;;;;;;;11.77;2.00;;;;;;;6.68;73.03;99261.44;5093689;28;20071;-42
2021/03/13 08:35:36;;;;;;;14.43;3.22;;;;;;;6.66;72.89;99271.63;5093638;28;20024;-41
2021/03/13 08:38:04;;;;;;;13.52;3.97;;;;;;;6.67;72.93;99275.94;5094163;28;20380;-41
2021/03/13 08:40:30;;;;;;;12.70;2.58;;;;;;;6.66;72.09;99268.94;5093684;28;20032;-41
2021/03/13 08:42:56;;;;;;;;;;;;;;;6.68;71.19;99266.81;5094213;28;20028;-42
2021/03/13 08:45:23;;;;;;;10.23;2.03;;;;;;;6.60;71.45;99280.66;5094272;28;20033;-41
2021/03/13 08:47:54;;;;;;;8.63;2.25;;;;;;;6.52;72.81;99270.31;5096954;28;20115;-42
2021/03/13 08:50:44;;;;;;;7.88;2.00;;;;;;;6.47;73.41;99278.28;5098428;28;20024;-41
2021/03/13 08:53:28;;;;;;;10.07;2.67;;;;;;;6.40;73.06;99289.19;5097741;28;20035;-41
2021/03/13 08:55:53;;;;;;;9.05;1.80;;;;;;;6.34;72.71;99274.81;5097994;28;20039;-41
2021/03/13 08:58:38;;;;;;;7.07;1.60;;;;;;;6.36;72.78;99280.78;5097708;28;20024;-41
2021/03/13 09:01:17;;;;;;;6.50;1.67;;;;;;;6.45;72.37;99282.03;5097527;28;20103;-41
2021/03/13 09:03:52;;;;;;;5.15;1.40;;;;;;;6.44;73.00;99291.16;5097478;28;20426;-41
2021/03/13 09:06:19;;;;;;;4.88;1.42;;;;;;;6.61;73.89;99287.66;5097555;28;20036;-41
2021/03/13 09:08:45;;;;;;;3.55;1.27;;;;;;;6.70;73.75;99262.03;5097091;28;20028;-42
2021/03/13 09:11:10;;;;;;;4.13;1.27;;;;;;;6.79;73.53;99278.56;5098145;28;20093;-42
2021/03/13 09:13:36;;;;;;;5.57;1.17;;;;;;;6.76;74.03;99279.84;5097632;28;20047;-40
2021/03/13 09:16:15;;;;;;;7.80;1.77;;;;;;;6.72;74.21;99274.13;5097864;28;20074;-42
2021/03/13 09:18:54;;;;;;;5.80;1.70;;;;;;;6.82;73.98;99267.31;5097492;28;20024;-42
2021/03/13 09:21:54;;;;;;;7.65;1.80;;;;;;;6.88;74.63;99274.38;5097775;28;20032;-42
2021/03/13 09:24:26;;;;;;;8.65;1.85;;;;;;;6.89;74.56;99266.09;5097432;28;20111;-42
2021/03/13 09:26:59;;;;;;;12.05;2.55;;;;;;;6.87;74.30;99270.88;5097427;28;20402;-42
2021/03/13 09:29:25;;;;;;;11.23;2.67;;;;;;;6.82;74.21;99262.75;5097334;28;20032;-42
2021/03/13 09:31:55;;;;;;;15.10;2.70;;;;;;;6.78;74.63;99250.03;5096140;28;20396;-42
2021/03/13 09:34:21;;;;;;;11.43;2.63;;;;;;;6.76;75.83;99277.16;5096870;28;20535;-41
2021/03/13 09:36:47;;;;;;;13.35;2.90;;;;;;;6.71;76.66;99263.66;5096880;28;20063;-41
2021/03/13 09:39:26;;;;;;;16.92;3.08;;;;;;;6.68;76.55;99261.44;5096894;28;20027;-41
2021/03/13 09:42:11;;;;;;;15.45;3.05;;;;;;;6.66;78.30;99271.63;5096528;28;20472;-41
2021/03/13 09:44:45;;;;;;;14.82;2.92;;;;;;;6.63;77.96;99248.75;5096835;28;20035;-41
2021/03/13 09:47:30;;;;;;;18.70;3.60;;;;;;;6.68;77.66;99253.38;5096990;28;20107;-41
2021/03/13 09:49:57;;;;;;;13.38;2.80;;;;;;;6.80;76.16;99258.69;5097001;28;20042;-41
2021/03/13 09:52:28;;;;;;;15.63;3.63;;;;;;;6.95;75.69;99259.72;5096824;28;20438;-41
2021/03/13 09:55:02;;;;;;;11.50;3.05;;;;;;;7.13;74.74;99260.53;5096075;28;20066;-41
2021/03/13 09:57:28;;;;;;;14.82;3.35;;;;;;;7.35;72.22;99261.38;5096548;28;20028;-41
2021/03/13 09:59:54;;;;;;;16.53;3.67;;;;;;;7.40;71.88;99255.25;5096628;28;20107;-41
2021/03/13 10:02:21;;;;;;;12.48;3.30;;;;;;;7.46;70.74;99255.06;5096678;28;20051;-42
2021/03/13 10:04:48;;;;;;;15.00;3.70;;;;;;;7.52;70.00;99274.78;5096190;28;20589;-41
2021/03/13 10:07:14;;;;;;;18.00;3.60;;;;;;;7.54;68.73;99251.13;5096328;28;20032;-41
2021/03/13 10:10:10;;;;;;;13.55;3.42;;;;;;;7.59;69.13;99269.22;5096973;28;20056;-41
2021/03/13 10:12:44;;;;;;;17.45;3.53;;;;;;;7.65;68.94;99247.50;5074074;28;20119;-41
2021/03/13 10:15:12;;;;;;;18.83;4.57;;;;;;;7.67;66.55;99260.72;5074182;28;20033;-42
2021/03/13 10:17:50;;;;;;;18.23;3.63;;;;;;;7.69;67.50;99263.97;5073771;28;20645;-40
2021/03/13 10:20:16;;;;;;;16.23;3.60;;;;;;;7.76;68.23;99272.69;5073788;28;20071;-39
2021/03/13 10:22:41;;;;;;;18.52;4.88;;;;;;;7.77;66.28;99260.03;5073537;28;20147;-41
2021/03/13 10:25:08;;;;;;;17.47;4.00;;;;;;;7.79;66.72;99264.09;5073994;28;20045;-42
2021/03/13 10:27:35;;;;;;;24.70;5.82;;;;;;;7.87;66.20;99270.91;5073356;28;20389;-41
2021/03/13 10:30:04;;;;;;;19.13;3.95;;;;;;;7.97;65.74;99271.03;5073598;28;20137;-41
2021/03/13 10:32:31;;;;;;;22.95;3.53;;;;;;;8.11;65.03;99258.00;5073093;28;20032;-41
2021/03/13 10:35:20;;;;;;;15.05;3.65;;;;;;;8.28;66.16;99266.78;5073057;28;20127;-41
2021/03/13 10:37:48;;;;;;;17.70;4.05;;;;;;;8.54;63.90;99257.09;5073754;28;20037;-41
2021/03/13 10:40:45;;;;;;;13.10;4.00;;;;;;;8.81;63.11;99265.13;5073392;28;20128;-41
2021/03/13 10:43:12;;;;;;;18.17;4.25;;;;;;;9.01;61.36;99251.78;5073275;28;20032;-40
2021/03/13 10:45:38;;;;;;;15.70;3.70;;;;;;;9.03;60.86;99271.22;5073892;28;20028;-41
2021/03/13 10:48:08;;;;;;;17.15;3.80;;;;;;;9.13;60.52;99254.31;5075706;28;20174;-41
2021/03/13 10:50:39;;;;;;;20.55;4.30;;;;;;;9.26;60.88;99256.53;5094779;28;20407;-41
2021/03/13 10:53:36;;;;;;;19.77;4.05;;;;;;;9.15;59.83;99262.13;5095430;28;20039;-41
2021/03/13 10:56:05;;;;;;;16.67;3.72;;;;;;;9.16;59.41;99263.75;5095445;28;20020;-41
2021/03/13 10:58:35;;;;;;;16.85;3.17;;;;;;;9.15;59.06;99245.94;5095848;28;20051;-42
2021/03/13 11:01:04;;;;;;;16.30;4.28;;;;;;;9.15;60.46;99254.03;5094970;28;20028;-41
2021/03/13 11:03:30;;;;;;;21.63;4.93;;;;;;;9.24;59.59;99260.56;5095187;28;20027;-41
2021/03/13 11:05:56;;;;;;;15.15;4.00;;;;;;;9.11;57.80;99251.03;5096095;28;20024;-42
2021/03/13 11:08:23;;;;;;;12.43;3.08;;;;;;;8.97;60.08;99233.69;5095378;28;20035;-42
2021/03/13 11:10:50;;;;;;;16.67;4.85;;;;;;;8.80;59.71;99228.47;5094762;28;20040;-41
2021/03/13 11:13:16;;;;;;;16.27;4.10;;;;;;;8.67;61.76;99215.41;5094819;28;20025;-42
2021/03/13 11:15:41;;;;;;;14.77;3.60;;;;;;;8.59;62.88;99222.13;5095046;28;20028;-41
2021/03/13 11:18:07;;;;;;;16.67;4.00;;;;;;;8.50;61.73;99245.22;5094971;28;20372;-42
2021/03/13 11:20:33;;;;;;;26.07;5.33;;;;;;;8.36;61.02;99246.66;5095294;28;20051;-41
2021/03/13 11:22:59;;;;;;;14.52;3.75;;;;;;;8.25;61.67;99272.69;5094812;28;20020;-41
2021/03/13 11:25:24;;;;;;;13.20;4.20;;;;;;;8.19;63.52;99289.84;5095462;28;20024;-41
2021/03/13 11:27:50;;;;;;;14.30;4.07;;;;;;;7.78;68.43;99331.63;5094770;28;20028;-41
2021/03/13 11:30:16;;;;;;;8.90;2.57;;;;;;;7.22;70.18;99292.13;5094788;28;20024;-41
2021/03/13 11:32:42;;;;;;;9.73;2.55;;;;;;;6.86;72.42;99320.31;5094330;28;20032;-41
2021/03/13 11:35:08;;;;;;;15.00;3.20;;;;;;;6.75;73.22;99297.03;5094915;28;20028;-41
2021/03/13 11:37:34;;;;;;;9.73;2.88;;;;;;;6.91;74.10;99293.53;5093626;28;20072;-41
2021/03/13 11:39:59;;;;;;;;;;;;;;;7.18;73.09;99293.69;5094793;28;20028;-42
2021/03/13 11:42:28;;;;;;;15.70;3.28;;;;;;;7.37;72.49;99307.69;5094797;28;19908;-41
2021/03/13 11:44:54;;;;;;;14.02;2.75;;;;;;;7.55;69.67;99281.53;5094469;28;20057;-41
2021/03/13 11:47:20;;;;;;;16.80;3.45;;;;;;;7.86;69.79;99282.75;5094675;28;20357;-41
2021/03/13 11:49:45;;;;;;;10.93;2.88;;;;;;;8.14;68.18;99262.84;5095193;28;20039;-41
2021/03/13 11:52:10;;;;;;;18.07;2.60;;;;;;;8.44;66.51;99262.38;5094058;28;20024;-42